sensor_id;sensor_type;location;lat;lon;timestamp;P1;durP1;ratioP1;P2;durP2;ratioP2
3997;SDS011;61314;53.444;9.902;2024-02-21T00:02:22;42.97;;;22.48;;
3997;SDS011;61314;53.444;9.902;2024-02-21T00:04:49;49.78;;;21.75;;
3997;SDS011;61314;53.444;9.902;2024-02-21T00:07:16;47.55;;;24.38;;
3997;SDS011;61314;53.444;9.902;2024-02-21T00:09:44;55.50;;;24.55;;
3997;SDS011;61314;53.444;9.902;2024-02-21T00:12:11;59.42;;;23.77;;
3997;SDS011;61314;53.444;9.902;2024-02-21T00:14:40;63.58;;;24.55;;
3997;SDS011;61314;53.444;9.902;2024-02-21T00:17:07;61.28;;;24.63;;
3997;SDS011;61314;53.444;9.902;2024-02-21T00:19:34;58.08;;;24.65;;
3997;SDS011;61314;53.444;9.902;2024-02-21T00:22:02;61.80;;;26.38;;
3997;SDS011;61314;53.444;9.902;2024-02-21T00:24:29;46.60;;;24.75;;
3997;SDS011;61314;53.444;9.902;2024-02-21T00:26:56;53.25;;;26.55;;
3997;SDS011;61314;53.444;9.902;2024-02-21T00:29:23;48.17;;;26.00;;
3997;SDS011;61314;53.444;9.902;2024-02-21T00:31:50;55.15;;;26.73;;
3997;SDS011;61314;53.444;9.902;2024-02-21T00:34:18;53.97;;;25.70;;
3997;SDS011;61314;53.444;9.902;2024-02-21T00:36:45;63.30;;;26.08;;
3997;SDS011;61314;53.444;9.902;2024-02-21T00:39:12;55.30;;;26.52;;
3997;SDS011;61314;53.444;9.902;2024-02-21T00:41:39;49.17;;;25.83;;
3997;SDS011;61314;53.444;9.902;2024-02-21T00:44:06;48.63;;;26.70;;
3997;SDS011;61314;53.444;9.902;2024-02-21T00:46:34;51.92;;;26.27;;
3997;SDS011;61314;53.444;9.902;2024-02-21T00:49:01;55.47;;;27.15;;
3997;SDS011;61314;53.444;9.902;2024-02-21T00:51:28;56.50;;;26.90;;
3997;SDS011;61314;53.444;9.902;2024-02-21T00:53:55;58.97;;;28.83;;
3997;SDS011;61314;53.444;9.902;2024-02-21T00:56:22;51.50;;;27.23;;
3997;SDS011;61314;53.444;9.902;2024-02-21T00:58:49;53.35;;;27.67;;
3997;SDS011;61314;53.444;9.902;2024-02-21T01:01:23;57.47;;;26.98;;
3997;SDS011;61314;53.444;9.902;2024-02-21T01:03:51;67.97;;;29.98;;
3997;SDS011;61314;53.444;9.902;2024-02-21T01:06:21;75.05;;;29.23;;
3997;SDS011;61314;53.444;9.902;2024-02-21T01:08:49;83.50;;;30.05;;
3997;SDS011;61314;53.444;9.902;2024-02-21T01:11:16;62.38;;;29.52;;
3997;SDS011;61314;53.444;9.902;2024-02-21T01:13:44;62.03;;;28.10;;
3997;SDS011;61314;53.444;9.902;2024-02-21T01:16:11;63.13;;;28.90;;
3997;SDS011;61314;53.444;9.902;2024-02-21T01:18:38;63.53;;;30.35;;
3997;SDS011;61314;53.444;9.902;2024-02-21T01:21:06;65.25;;;29.23;;
3997;SDS011;61314;53.444;9.902;2024-02-21T01:23:34;60.30;;;28.80;;
3997;SDS011;61314;53.444;9.902;2024-02-21T01:26:02;53.42;;;26.70;;
3997;SDS011;61314;53.444;9.902;2024-02-21T01:28:30;52.17;;;27.83;;
3997;SDS011;61314;53.444;9.902;2024-02-21T01:30:57;52.85;;;29.70;;
3997;SDS011;61314;53.444;9.902;2024-02-21T01:33:25;55.78;;;28.65;;
3997;SDS011;61314;53.444;9.902;2024-02-21T01:35:52;54.22;;;29.40;;
3997;SDS011;61314;53.444;9.902;2024-02-21T01:38:19;54.30;;;27.83;;
3997;SDS011;61314;53.444;9.902;2024-02-21T01:40:47;53.45;;;27.98;;
3997;SDS011;61314;53.444;9.902;2024-02-21T01:43:18;48.30;;;27.20;;
3997;SDS011;61314;53.444;9.902;2024-02-21T01:45:50;54.53;;;27.63;;
3997;SDS011;61314;53.444;9.902;2024-02-21T01:48:17;54.92;;;27.38;;
3997;SDS011;61314;53.444;9.902;2024-02-21T01:50:48;56.53;;;28.65;;
3997;SDS011;61314;53.444;9.902;2024-02-21T01:53:16;56.15;;;27.85;;
3997;SDS011;61314;53.444;9.902;2024-02-21T01:55:48;56.88;;;29.40;;
3997;SDS011;61314;53.444;9.902;2024-02-21T01:58:15;56.80;;;27.58;;
3997;SDS011;61314;53.444;9.902;2024-02-21T02:00:44;53.95;;;30.27;;
3997;SDS011;61314;53.444;9.902;2024-02-21T02:03:12;57.78;;;29.85;;
3997;SDS011;61314;53.444;9.902;2024-02-21T02:05:46;58.15;;;30.63;;
3997;SDS011;61314;53.444;9.902;2024-02-21T02:08:15;56.35;;;30.58;;
3997;SDS011;61314;53.444;9.902;2024-02-21T02:10:42;61.28;;;31.05;;
3997;SDS011;61314;53.444;9.902;2024-02-21T02:13:10;65.63;;;31.83;;
3997;SDS011;61314;53.444;9.902;2024-02-21T02:15:41;61.80;;;30.70;;
3997;SDS011;61314;53.444;9.902;2024-02-21T02:18:09;59.25;;;31.17;;
3997;SDS011;61314;53.444;9.902;2024-02-21T02:20:36;79.15;;;33.75;;
3997;SDS011;61314;53.444;9.902;2024-02-21T02:23:07;63.00;;;33.83;;
3997;SDS011;61314;53.444;9.902;2024-02-21T02:25:38;67.15;;;33.50;;
3997;SDS011;61314;53.444;9.902;2024-02-21T02:28:05;60.63;;;33.90;;
3997;SDS011;61314;53.444;9.902;2024-02-21T02:30:33;55.30;;;30.48;;
3997;SDS011;61314;53.444;9.902;2024-02-21T02:33:02;56.80;;;32.95;;
3997;SDS011;61314;53.444;9.902;2024-02-21T02:35:29;66.00;;;32.22;;
3997;SDS011;61314;53.444;9.902;2024-02-21T02:37:57;74.70;;;34.38;;
3997;SDS011;61314;53.444;9.902;2024-02-21T02:40:24;65.50;;;32.55;;
3997;SDS011;61314;53.444;9.902;2024-02-21T02:42:51;59.78;;;32.80;;
3997;SDS011;61314;53.444;9.902;2024-02-21T02:45:22;66.30;;;34.70;;
3997;SDS011;61314;53.444;9.902;2024-02-21T02:47:53;68.15;;;33.35;;
3997;SDS011;61314;53.444;9.902;2024-02-21T02:50:20;79.43;;;36.13;;
3997;SDS011;61314;53.444;9.902;2024-02-21T02:52:48;72.35;;;35.85;;
3997;SDS011;61314;53.444;9.902;2024-02-21T02:55:15;65.65;;;33.33;;
3997;SDS011;61314;53.444;9.902;2024-02-21T02:57:42;69.47;;;33.33;;
3997;SDS011;61314;53.444;9.902;2024-02-21T03:00:10;69.38;;;35.28;;
3997;SDS011;61314;53.444;9.902;2024-02-21T03:02:38;59.80;;;32.90;;
3997;SDS011;61314;53.444;9.902;2024-02-21T03:05:12;65.82;;;34.13;;
3997;SDS011;61314;53.444;9.902;2024-02-21T03:07:41;69.28;;;32.67;;
3997;SDS011;61314;53.444;9.902;2024-02-21T03:10:09;62.92;;;32.90;;
3997;SDS011;61314;53.444;9.902;2024-02-21T03:12:36;73.68;;;32.60;;
3997;SDS011;61314;53.444;9.902;2024-02-21T03:15:04;70.80;;;30.77;;
3997;SDS011;61314;53.444;9.902;2024-02-21T03:17:32;51.75;;;32.08;;
3997;SDS011;61314;53.444;9.902;2024-02-21T03:20:01;62.88;;;32.10;;
3997;SDS011;61314;53.444;9.902;2024-02-21T03:22:31;57.72;;;30.52;;
3997;SDS011;61314;53.444;9.902;2024-02-21T03:24:59;57.35;;;31.23;;
3997;SDS011;61314;53.444;9.902;2024-02-21T03:27:27;60.67;;;30.73;;
3997;SDS011;61314;53.444;9.902;2024-02-21T03:29:54;61.55;;;29.33;;
3997;SDS011;61314;53.444;9.902;2024-02-21T03:32:21;64.50;;;30.63;;
3997;SDS011;61314;53.444;9.902;2024-02-21T03:34:48;58.88;;;30.17;;
3997;SDS011;61314;53.444;9.902;2024-02-21T03:37:15;54.10;;;28.35;;
3997;SDS011;61314;53.444;9.902;2024-02-21T03:39:42;53.10;;;28.30;;
3997;SDS011;61314;53.444;9.902;2024-02-21T03:42:10;54.40;;;26.70;;
3997;SDS011;61314;53.444;9.902;2024-02-21T03:44:37;59.75;;;28.48;;
3997;SDS011;61314;53.444;9.902;2024-02-21T03:47:04;62.17;;;30.25;;
3997;SDS011;61314;53.444;9.902;2024-02-21T03:49:31;65.68;;;31.70;;
3997;SDS011;61314;53.444;9.902;2024-02-21T03:51:59;66.68;;;29.15;;
3997;SDS011;61314;53.444;9.902;2024-02-21T03:54:26;52.20;;;27.65;;
3997;SDS011;61314;53.444;9.902;2024-02-21T03:56:53;70.28;;;28.85;;
3997;SDS011;61314;53.444;9.902;2024-02-21T03:59:21;66.22;;;29.77;;
3997;SDS011;61314;53.444;9.902;2024-02-21T04:01:52;60.38;;;30.45;;
3997;SDS011;61314;53.444;9.902;2024-02-21T04:04:20;65.95;;;28.30;;
3997;SDS011;61314;53.444;9.902;2024-02-21T04:06:48;60.10;;;31.08;;
3997;SDS011;61314;53.444;9.902;2024-02-21T04:09:15;53.67;;;29.58;;
3997;SDS011;61314;53.444;9.902;2024-02-21T04:11:42;60.08;;;29.30;;
3997;SDS011;61314;53.444;9.902;2024-02-21T04:14:09;53.55;;;29.05;;
3997;SDS011;61314;53.444;9.902;2024-02-21T04:16:38;57.33;;;29.23;;
3997;SDS011;61314;53.444;9.902;2024-02-21T04:19:06;54.15;;;29.02;;
3997;SDS011;61314;53.444;9.902;2024-02-21T04:21:34;55.95;;;29.08;;
3997;SDS011;61314;53.444;9.902;2024-02-21T04:24:01;59.60;;;29.25;;
3997;SDS011;61314;53.444;9.902;2024-02-21T04:26:31;52.83;;;30.70;;
3997;SDS011;61314;53.444;9.902;2024-02-21T04:28:58;52.25;;;29.30;;
3997;SDS011;61314;53.444;9.902;2024-02-21T04:31:26;57.42;;;28.65;;
3997;SDS011;61314;53.444;9.902;2024-02-21T04:33:53;50.75;;;27.90;;
3997;SDS011;61314;53.444;9.902;2024-02-21T04:36:20;52.22;;;29.00;;
3997;SDS011;61314;53.444;9.902;2024-02-21T04:38:47;47.38;;;28.55;;
3997;SDS011;61314;53.444;9.902;2024-02-21T04:41:16;54.40;;;27.48;;
3997;SDS011;61314;53.444;9.902;2024-02-21T04:43:43;43.67;;;27.40;;
3997;SDS011;61314;53.444;9.902;2024-02-21T04:46:10;54.95;;;28.30;;
3997;SDS011;61314;53.444;9.902;2024-02-21T04:48:37;52.53;;;27.00;;
3997;SDS011;61314;53.444;9.902;2024-02-21T04:51:05;49.72;;;28.88;;
3997;SDS011;61314;53.444;9.902;2024-02-21T04:53:32;42.05;;;26.33;;
3997;SDS011;61314;53.444;9.902;2024-02-21T04:55:59;52.42;;;24.65;;
3997;SDS011;61314;53.444;9.902;2024-02-21T04:58:26;42.97;;;25.13;;
3997;SDS011;61314;53.444;9.902;2024-02-21T05:00:53;48.42;;;26.30;;
3997;SDS011;61314;53.444;9.902;2024-02-21T05:03:21;42.97;;;25.33;;
3997;SDS011;61314;53.444;9.902;2024-02-21T05:05:48;38.72;;;25.27;;
3997;SDS011;61314;53.444;9.902;2024-02-21T05:08:16;52.13;;;26.27;;
3997;SDS011;61314;53.444;9.902;2024-02-21T05:10:43;40.63;;;23.42;;
3997;SDS011;61314;53.444;9.902;2024-02-21T05:13:10;36.47;;;23.77;;
3997;SDS011;61314;53.444;9.902;2024-02-21T05:15:37;37.90;;;22.50;;
3997;SDS011;61314;53.444;9.902;2024-02-21T05:18:04;37.13;;;22.23;;
3997;SDS011;61314;53.444;9.902;2024-02-21T05:20:32;34.08;;;24.20;;
3997;SDS011;61314;53.444;9.902;2024-02-21T05:22:59;43.72;;;22.63;;
3997;SDS011;61314;53.444;9.902;2024-02-21T05:25:26;35.17;;;22.27;;
3997;SDS011;61314;53.444;9.902;2024-02-21T05:27:53;39.95;;;22.25;;
3997;SDS011;61314;53.444;9.902;2024-02-21T05:30:21;42.33;;;24.08;;
3997;SDS011;61314;53.444;9.902;2024-02-21T05:32:49;36.65;;;22.05;;
3997;SDS011;61314;53.444;9.902;2024-02-21T05:35:16;32.35;;;20.80;;
3997;SDS011;61314;53.444;9.902;2024-02-21T05:37:43;34.40;;;20.30;;
3997;SDS011;61314;53.444;9.902;2024-02-21T05:40:12;31.50;;;19.52;;
3997;SDS011;61314;53.444;9.902;2024-02-21T05:42:40;31.05;;;18.25;;
3997;SDS011;61314;53.444;9.902;2024-02-21T05:45:07;30.33;;;17.10;;
3997;SDS011;61314;53.444;9.902;2024-02-21T05:47:34;27.38;;;18.20;;
3997;SDS011;61314;53.444;9.902;2024-02-21T05:50:01;31.38;;;18.58;;
3997;SDS011;61314;53.444;9.902;2024-02-21T05:52:29;28.27;;;19.15;;
3997;SDS011;61314;53.444;9.902;2024-02-21T05:54:56;28.00;;;16.23;;
3997;SDS011;61314;53.444;9.902;2024-02-21T05:57:23;26.50;;;16.90;;
3997;SDS011;61314;53.444;9.902;2024-02-21T05:59:50;30.20;;;18.35;;
3997;SDS011;61314;53.444;9.902;2024-02-21T06:02:17;23.88;;;16.67;;
3997;SDS011;61314;53.444;9.902;2024-02-21T06:04:44;29.15;;;16.30;;
3997;SDS011;61314;53.444;9.902;2024-02-21T06:07:12;28.60;;;16.30;;
3997;SDS011;61314;53.444;9.902;2024-02-21T06:09:40;24.00;;;16.40;;
3997;SDS011;61314;53.444;9.902;2024-02-21T06:12:07;23.90;;;16.75;;
3997;SDS011;61314;53.444;9.902;2024-02-21T06:14:34;27.05;;;17.23;;
3997;SDS011;61314;53.444;9.902;2024-02-21T06:17:01;34.40;;;17.67;;
3997;SDS011;61314;53.444;9.902;2024-02-21T06:19:29;23.60;;;15.10;;
3997;SDS011;61314;53.444;9.902;2024-02-21T06:21:56;19.75;;;14.65;;
3997;SDS011;61314;53.444;9.902;2024-02-21T06:24:23;23.83;;;15.43;;
3997;SDS011;61314;53.444;9.902;2024-02-21T06:26:50;18.63;;;14.07;;
3997;SDS011;61314;53.444;9.902;2024-02-21T06:29:17;18.83;;;13.38;;
3997;SDS011;61314;53.444;9.902;2024-02-21T06:31:45;19.40;;;14.00;;
3997;SDS011;61314;53.444;9.902;2024-02-21T06:34:12;22.42;;;14.30;;
3997;SDS011;61314;53.444;9.902;2024-02-21T06:36:39;20.48;;;13.27;;
3997;SDS011;61314;53.444;9.902;2024-02-21T06:39:07;19.58;;;13.68;;
3997;SDS011;61314;53.444;9.902;2024-02-21T06:41:34;20.45;;;14.98;;
3997;SDS011;61314;53.444;9.902;2024-02-21T06:44:01;19.67;;;14.38;;
3997;SDS011;61314;53.444;9.902;2024-02-21T06:46:29;23.83;;;15.73;;
3997;SDS011;61314;53.444;9.902;2024-02-21T06:48:57;27.65;;;15.25;;
3997;SDS011;61314;53.444;9.902;2024-02-21T06:51:24;24.27;;;15.02;;
3997;SDS011;61314;53.444;9.902;2024-02-21T06:53:51;21.00;;;14.40;;
3997;SDS011;61314;53.444;9.902;2024-02-21T06:56:19;25.88;;;16.70;;
3997;SDS011;61314;53.444;9.902;2024-02-21T06:58:46;21.95;;;15.52;;
3997;SDS011;61314;53.444;9.902;2024-02-21T07:01:13;21.55;;;16.17;;
3997;SDS011;61314;53.444;9.902;2024-02-21T07:03:40;22.45;;;15.05;;
3997;SDS011;61314;53.444;9.902;2024-02-21T07:06:07;20.95;;;16.00;;
3997;SDS011;61314;53.444;9.902;2024-02-21T07:08:35;21.45;;;14.80;;
3997;SDS011;61314;53.444;9.902;2024-02-21T07:11:02;19.08;;;14.60;;
3997;SDS011;61314;53.444;9.902;2024-02-21T07:13:29;23.85;;;15.80;;
3997;SDS011;61314;53.444;9.902;2024-02-21T07:15:56;18.65;;;14.20;;
3997;SDS011;61314;53.444;9.902;2024-02-21T07:18:23;20.35;;;14.63;;
3997;SDS011;61314;53.444;9.902;2024-02-21T07:20:53;20.15;;;14.88;;
3997;SDS011;61314;53.444;9.902;2024-02-21T07:23:21;19.40;;;13.50;;
3997;SDS011;61314;53.444;9.902;2024-02-21T07:25:48;17.40;;;13.18;;
3997;SDS011;61314;53.444;9.902;2024-02-21T07:28:16;18.38;;;13.55;;
3997;SDS011;61314;53.444;9.902;2024-02-21T07:30:43;14.65;;;12.15;;
3997;SDS011;61314;53.444;9.902;2024-02-21T07:33:10;16.17;;;11.10;;
3997;SDS011;61314;53.444;9.902;2024-02-21T07:35:37;16.05;;;12.32;;
3997;SDS011;61314;53.444;9.902;2024-02-21T07:38:07;15.82;;;10.75;;
3997;SDS011;61314;53.444;9.902;2024-02-21T07:40:38;13.43;;;9.95;;
3997;SDS011;61314;53.444;9.902;2024-02-21T07:43:06;13.20;;;10.70;;
3997;SDS011;61314;53.444;9.902;2024-02-21T07:45:33;13.15;;;10.52;;
3997;SDS011;61314;53.444;9.902;2024-02-21T07:48:00;11.25;;;8.32;;
3997;SDS011;61314;53.444;9.902;2024-02-21T07:50:27;10.00;;;9.00;;
3997;SDS011;61314;53.444;9.902;2024-02-21T07:52:54;12.95;;;8.77;;
3997;SDS011;61314;53.444;9.902;2024-02-21T07:55:22;10.18;;;9.18;;
3997;SDS011;61314;53.444;9.902;2024-02-21T07:57:49;10.05;;;8.68;;
3997;SDS011;61314;53.444;9.902;2024-02-21T08:00:16;9.18;;;8.00;;
3997;SDS011;61314;53.444;9.902;2024-02-21T08:02:47;11.05;;;8.10;;
3997;SDS011;61314;53.444;9.902;2024-02-21T08:05:14;8.60;;;7.70;;
3997;SDS011;61314;53.444;9.902;2024-02-21T08:07:42;8.68;;;7.78;;
3997;SDS011;61314;53.444;9.902;2024-02-21T08:10:09;8.27;;;7.40;;
3997;SDS011;61314;53.444;9.902;2024-02-21T08:12:36;10.05;;;8.98;;
3997;SDS011;61314;53.444;9.902;2024-02-21T08:15:04;10.18;;;7.25;;
3997;SDS011;61314;53.444;9.902;2024-02-21T08:17:31;8.75;;;7.88;;
3997;SDS011;61314;53.444;9.902;2024-02-21T08:19:58;10.10;;;8.70;;
3997;SDS011;61314;53.444;9.902;2024-02-21T08:22:25;9.20;;;8.20;;
3997;SDS011;61314;53.444;9.902;2024-02-21T08:24:53;8.32;;;7.45;;
3997;SDS011;61314;53.444;9.902;2024-02-21T08:27:20;10.27;;;9.15;;
3997;SDS011;61314;53.444;9.902;2024-02-21T08:29:47;11.05;;;8.93;;
3997;SDS011;61314;53.444;9.902;2024-02-21T08:32:14;11.35;;;9.48;;
3997;SDS011;61314;53.444;9.902;2024-02-21T08:34:41;11.25;;;8.68;;
3997;SDS011;61314;53.444;9.902;2024-02-21T08:37:08;15.68;;;10.05;;
3997;SDS011;61314;53.444;9.902;2024-02-21T08:39:37;12.13;;;9.48;;
3997;SDS011;61314;53.444;9.902;2024-02-21T08:42:04;11.85;;;9.95;;
3997;SDS011;61314;53.444;9.902;2024-02-21T08:44:32;12.07;;;10.15;;
3997;SDS011;61314;53.444;9.902;2024-02-21T08:46:59;11.88;;;9.40;;
3997;SDS011;61314;53.444;9.902;2024-02-21T08:49:29;14.25;;;10.35;;
3997;SDS011;61314;53.444;9.902;2024-02-21T08:52:00;12.73;;;10.02;;
3997;SDS011;61314;53.444;9.902;2024-02-21T08:54:28;10.95;;;9.65;;
3997;SDS011;61314;53.444;9.902;2024-02-21T08:56:55;10.13;;;9.10;;
3997;SDS011;61314;53.444;9.902;2024-02-21T08:59:23;12.25;;;10.70;;
3997;SDS011;61314;53.444;9.902;2024-02-21T09:01:51;11.10;;;8.68;;
3997;SDS011;61314;53.444;9.902;2024-02-21T09:04:19;9.73;;;7.95;;
3997;SDS011;61314;53.444;9.902;2024-02-21T09:06:47;9.27;;;8.13;;
3997;SDS011;61314;53.444;9.902;2024-02-21T09:09:14;8.68;;;7.75;;
3997;SDS011;61314;53.444;9.902;2024-02-21T09:11:41;9.98;;;7.95;;
3997;SDS011;61314;53.444;9.902;2024-02-21T09:14:08;8.98;;;8.05;;
3997;SDS011;61314;53.444;9.902;2024-02-21T09:16:36;6.72;;;6.05;;
3997;SDS011;61314;53.444;9.902;2024-02-21T09:19:03;7.32;;;6.63;;
3997;SDS011;61314;53.444;9.902;2024-02-21T09:21:30;7.25;;;6.55;;
3997;SDS011;61314;53.444;9.902;2024-02-21T09:23:57;7.60;;;6.80;;
3997;SDS011;61314;53.444;9.902;2024-02-21T09:26:26;9.68;;;7.80;;
3997;SDS011;61314;53.444;9.902;2024-02-21T09:28:53;7.82;;;7.03;;
3997;SDS011;61314;53.444;9.902;2024-02-21T09:31:20;12.85;;;8.88;;
3997;SDS011;61314;53.444;9.902;2024-02-21T09:33:47;10.18;;;9.13;;
3997;SDS011;61314;53.444;9.902;2024-02-21T09:36:15;13.20;;;9.80;;
3997;SDS011;61314;53.444;9.902;2024-02-21T09:38:42;15.20;;;10.93;;
3997;SDS011;61314;53.444;9.902;2024-02-21T09:41:16;16.55;;;10.73;;
3997;SDS011;61314;53.444;9.902;2024-02-21T09:43:51;16.95;;;11.27;;
3997;SDS011;61314;53.444;9.902;2024-02-21T09:46:21;15.43;;;12.10;;
3997;SDS011;61314;53.444;9.902;2024-02-21T09:51:37;19.58;;;12.77;;
3997;SDS011;61314;53.444;9.902;2024-02-21T09:54:07;22.55;;;13.63;;
3997;SDS011;61314;53.444;9.902;2024-02-21T09:56:42;20.77;;;13.27;;
3997;SDS011;61314;53.444;9.902;2024-02-21T09:59:09;18.15;;;13.15;;
3997;SDS011;61314;53.444;9.902;2024-02-21T10:01:37;20.95;;;15.00;;
3997;SDS011;61314;53.444;9.902;2024-02-21T10:04:05;26.13;;;16.30;;
3997;SDS011;61314;53.444;9.902;2024-02-21T10:06:32;33.10;;;19.02;;
3997;SDS011;61314;53.444;9.902;2024-02-21T10:09:00;30.27;;;17.60;;
3997;SDS011;61314;53.444;9.902;2024-02-21T10:11:27;28.77;;;17.60;;
3997;SDS011;61314;53.444;9.902;2024-02-21T10:14:06;29.45;;;18.27;;
3997;SDS011;61314;53.444;9.902;2024-02-21T10:16:34;38.08;;;20.55;;
3997;SDS011;61314;53.444;9.902;2024-02-21T10:19:01;35.88;;;20.23;;
3997;SDS011;61314;53.444;9.902;2024-02-21T10:21:30;34.58;;;20.33;;
3997;SDS011;61314;53.444;9.902;2024-02-21T10:23:57;33.22;;;20.33;;
3997;SDS011;61314;53.444;9.902;2024-02-21T10:26:24;47.60;;;21.70;;
3997;SDS011;61314;53.444;9.902;2024-02-21T10:28:51;37.10;;;20.70;;
3997;SDS011;61314;53.444;9.902;2024-02-21T10:31:21;37.67;;;22.08;;
3997;SDS011;61314;53.444;9.902;2024-02-21T10:33:59;41.22;;;21.77;;
3997;SDS011;61314;53.444;9.902;2024-02-21T10:36:29;46.03;;;22.30;;
3997;SDS011;61314;53.444;9.902;2024-02-21T10:38:56;34.47;;;20.15;;
3997;SDS011;61314;53.444;9.902;2024-02-21T10:41:24;37.53;;;21.70;;
3997;SDS011;61314;53.444;9.902;2024-02-21T10:43:53;38.20;;;19.90;;
3997;SDS011;61314;53.444;9.902;2024-02-21T10:46:23;30.50;;;18.02;;
3997;SDS011;61314;53.444;9.902;2024-02-21T10:48:56;37.72;;;19.80;;
3997;SDS011;61314;53.444;9.902;2024-02-21T10:51:24;35.80;;;18.75;;
3997;SDS011;61314;53.444;9.902;2024-02-21T10:54:02;29.65;;;18.00;;
3997;SDS011;61314;53.444;9.902;2024-02-21T10:56:30;37.22;;;19.35;;
3997;SDS011;61314;53.444;9.902;2024-02-21T10:59:01;29.55;;;17.25;;
3997;SDS011;61314;53.444;9.902;2024-02-21T11:01:29;28.23;;;18.30;;
3997;SDS011;61314;53.444;9.902;2024-02-21T11:04:02;34.92;;;17.17;;
3997;SDS011;61314;53.444;9.902;2024-02-21T11:06:31;38.50;;;16.90;;
3997;SDS011;61314;53.444;9.902;2024-02-21T11:09:05;31.38;;;15.25;;
3997;SDS011;61314;53.444;9.902;2024-02-21T11:11:43;23.88;;;15.75;;
3997;SDS011;61314;53.444;9.902;2024-02-21T11:14:17;29.58;;;17.05;;
3997;SDS011;61314;53.444;9.902;2024-02-21T11:16:45;38.90;;;16.67;;
3997;SDS011;61314;53.444;9.902;2024-02-21T11:19:19;27.13;;;16.05;;
3997;SDS011;61314;53.444;9.902;2024-02-21T11:21:47;27.38;;;17.13;;
3997;SDS011;61314;53.444;9.902;2024-02-21T11:24:33;28.02;;;16.50;;
3997;SDS011;61314;53.444;9.902;2024-02-21T11:27:18;31.67;;;15.02;;
3997;SDS011;61314;53.444;9.902;2024-02-21T11:29:55;31.75;;;15.05;;
3997;SDS011;61314;53.444;9.902;2024-02-21T11:32:23;23.20;;;15.05;;
3997;SDS011;61314;53.444;9.902;2024-02-21T11:37:29;34.33;;;15.45;;
3997;SDS011;61314;53.444;9.902;2024-02-21T11:39:56;24.98;;;16.17;;
3997;SDS011;61314;53.444;9.902;2024-02-21T11:42:27;29.60;;;16.27;;
3997;SDS011;61314;53.444;9.902;2024-02-21T11:44:59;26.33;;;16.15;;
3997;SDS011;61314;53.444;9.902;2024-02-21T11:47:28;35.45;;;14.95;;
3997;SDS011;61314;53.444;9.902;2024-02-21T11:49:55;28.15;;;16.88;;
3997;SDS011;61314;53.444;9.902;2024-02-21T11:52:25;31.17;;;14.82;;
3997;SDS011;61314;53.444;9.902;2024-02-21T11:54:53;33.45;;;15.73;;
3997;SDS011;61314;53.444;9.902;2024-02-21T11:57:22;32.97;;;16.95;;
3997;SDS011;61314;53.444;9.902;2024-02-21T11:59:49;34.33;;;18.63;;
3997;SDS011;61314;53.444;9.902;2024-02-21T12:02:23;34.00;;;17.83;;
3997;SDS011;61314;53.444;9.902;2024-02-21T12:04:50;28.58;;;15.38;;
3997;SDS011;61314;53.444;9.902;2024-02-21T12:07:18;29.95;;;16.50;;
3997;SDS011;61314;53.444;9.902;2024-02-21T12:09:45;29.30;;;16.30;;
3997;SDS011;61314;53.444;9.902;2024-02-21T12:12:13;30.88;;;15.43;;
3997;SDS011;61314;53.444;9.902;2024-02-21T12:14:40;34.15;;;17.75;;
3997;SDS011;61314;53.444;9.902;2024-02-21T12:17:07;28.48;;;17.85;;
3997;SDS011;61314;53.444;9.902;2024-02-21T12:19:35;26.63;;;17.02;;
3997;SDS011;61314;53.444;9.902;2024-02-21T12:22:02;31.00;;;19.45;;
3997;SDS011;61314;53.444;9.902;2024-02-21T12:24:32;31.33;;;18.60;;
3997;SDS011;61314;53.444;9.902;2024-02-21T12:27:00;41.30;;;17.85;;
3997;SDS011;61314;53.444;9.902;2024-02-21T12:29:30;39.95;;;19.73;;
3997;SDS011;61314;53.444;9.902;2024-02-21T12:31:57;32.47;;;17.60;;
3997;SDS011;61314;53.444;9.902;2024-02-21T12:34:24;33.97;;;18.63;;
3997;SDS011;61314;53.444;9.902;2024-02-21T12:37:10;26.45;;;17.30;;
3997;SDS011;61314;53.444;9.902;2024-02-21T12:39:39;31.95;;;17.98;;
3997;SDS011;61314;53.444;9.902;2024-02-21T12:42:06;37.38;;;19.52;;
3997;SDS011;61314;53.444;9.902;2024-02-21T12:44:33;26.85;;;16.90;;
3997;SDS011;61314;53.444;9.902;2024-02-21T12:47:01;34.05;;;17.67;;
3997;SDS011;61314;53.444;9.902;2024-02-21T12:49:28;32.58;;;18.45;;
3997;SDS011;61314;53.444;9.902;2024-02-21T12:51:56;34.30;;;17.55;;
3997;SDS011;61314;53.444;9.902;2024-02-21T12:54:23;34.95;;;17.38;;
3997;SDS011;61314;53.444;9.902;2024-02-21T12:56:50;28.55;;;18.30;;
3997;SDS011;61314;53.444;9.902;2024-02-21T12:59:17;29.85;;;18.13;;
3997;SDS011;61314;53.444;9.902;2024-02-21T13:01:45;38.75;;;18.10;;
3997;SDS011;61314;53.444;9.902;2024-02-21T13:04:12;25.88;;;17.63;;
3997;SDS011;61314;53.444;9.902;2024-02-21T13:06:39;36.20;;;19.25;;
3997;SDS011;61314;53.444;9.902;2024-02-21T13:09:06;33.78;;;17.00;;
3997;SDS011;61314;53.444;9.902;2024-02-21T13:11:36;26.23;;;16.77;;
3997;SDS011;61314;53.444;9.902;2024-02-21T13:14:04;29.77;;;17.80;;
3997;SDS011;61314;53.444;9.902;2024-02-21T13:16:31;23.05;;;15.18;;
3997;SDS011;61314;53.444;9.902;2024-02-21T13:19:06;28.98;;;16.85;;
3997;SDS011;61314;53.444;9.902;2024-02-21T13:21:35;28.25;;;16.90;;
3997;SDS011;61314;53.444;9.902;2024-02-21T13:24:02;28.08;;;16.88;;
3997;SDS011;61314;53.444;9.902;2024-02-21T13:26:29;27.88;;;16.45;;
3997;SDS011;61314;53.444;9.902;2024-02-21T13:28:56;32.42;;;15.70;;
3997;SDS011;61314;53.444;9.902;2024-02-21T13:31:24;25.65;;;16.33;;
3997;SDS011;61314;53.444;9.902;2024-02-21T13:33:52;27.88;;;16.95;;
3997;SDS011;61314;53.444;9.902;2024-02-21T13:36:19;26.13;;;16.35;;
3997;SDS011;61314;53.444;9.902;2024-02-21T13:38:46;24.50;;;16.08;;
3997;SDS011;61314;53.444;9.902;2024-02-21T13:41:14;31.42;;;16.52;;
3997;SDS011;61314;53.444;9.902;2024-02-21T13:43:41;27.67;;;16.52;;
3997;SDS011;61314;53.444;9.902;2024-02-21T13:46:08;28.27;;;16.02;;
3997;SDS011;61314;53.444;9.902;2024-02-21T13:48:36;31.27;;;16.35;;
3997;SDS011;61314;53.444;9.902;2024-02-21T13:51:03;28.02;;;16.85;;
3997;SDS011;61314;53.444;9.902;2024-02-21T13:53:31;28.00;;;15.27;;
3997;SDS011;61314;53.444;9.902;2024-02-21T13:55:58;30.42;;;15.63;;
3997;SDS011;61314;53.444;9.902;2024-02-21T13:58:25;20.80;;;15.07;;
3997;SDS011;61314;53.444;9.902;2024-02-21T14:00:53;24.52;;;13.90;;
3997;SDS011;61314;53.444;9.902;2024-02-21T14:03:20;21.13;;;13.32;;
3997;SDS011;61314;53.444;9.902;2024-02-21T14:05:47;21.50;;;14.20;;
3997;SDS011;61314;53.444;9.902;2024-02-21T14:08:15;24.33;;;13.50;;
3997;SDS011;61314;53.444;9.902;2024-02-21T14:10:42;35.63;;;15.07;;
3997;SDS011;61314;53.444;9.902;2024-02-21T14:13:09;18.75;;;12.70;;
3997;SDS011;61314;53.444;9.902;2024-02-21T14:15:37;22.40;;;14.25;;
3997;SDS011;61314;53.444;9.902;2024-02-21T14:18:07;24.63;;;13.48;;
3997;SDS011;61314;53.444;9.902;2024-02-21T14:20:36;19.58;;;14.18;;
3997;SDS011;61314;53.444;9.902;2024-02-21T14:23:03;24.05;;;14.60;;
3997;SDS011;61314;53.444;9.902;2024-02-21T14:25:31;19.67;;;12.90;;
3997;SDS011;61314;53.444;9.902;2024-02-21T14:28:02;19.05;;;13.30;;
3997;SDS011;61314;53.444;9.902;2024-02-21T14:30:30;21.63;;;12.65;;
3997;SDS011;61314;53.444;9.902;2024-02-21T14:32:57;21.90;;;14.68;;
3997;SDS011;61314;53.444;9.902;2024-02-21T14:35:24;26.33;;;15.10;;
3997;SDS011;61314;53.444;9.902;2024-02-21T14:37:51;20.27;;;14.15;;
3997;SDS011;61314;53.444;9.902;2024-02-21T14:40:21;16.48;;;12.80;;
3997;SDS011;61314;53.444;9.902;2024-02-21T14:42:49;16.38;;;13.18;;
3997;SDS011;61314;53.444;9.902;2024-02-21T14:45:16;20.83;;;12.82;;
3997;SDS011;61314;53.444;9.902;2024-02-21T14:47:43;22.60;;;13.20;;